sensor_id;sensor_type;location;lat;lon;timestamp;P1;durP1;ratioP1;P2;durP2;ratioP2
20415;SDS011;10367;52.202;5.996;2022-07-05T00:02:25;14.47;;;13.23;;
20415;SDS011;10367;52.202;5.996;2022-07-05T00:04:55;14.97;;;13.80;;
20415;SDS011;10367;52.202;5.996;2022-07-05T00:07:24;15.27;;;13.90;;
20415;SDS011;10367;52.202;5.996;2022-07-05T00:09:54;15.27;;;14.03;;
20415;SDS011;10367;52.202;5.996;2022-07-05T00:12:24;15.63;;;14.13;;
20415;SDS011;10367;52.202;5.996;2022-07-05T00:14:55;14.80;;;13.43;;
20415;SDS011;10367;52.202;5.996;2022-07-05T00:17:24;14.60;;;13.30;;
20415;SDS011;10367;52.202;5.996;2022-07-05T00:19:54;14.47;;;13.13;;
20415;SDS011;10367;52.202;5.996;2022-07-05T00:22:23;16.40;;;13.83;;
20415;SDS011;10367;52.202;5.996;2022-07-05T00:24:56;14.57;;;13.37;;
20415;SDS011;10367;52.202;5.996;2022-07-05T00:27:25;17.00;;;15.40;;
20415;SDS011;10367;52.202;5.996;2022-07-05T00:29:55;14.67;;;13.43;;
20415;SDS011;10367;52.202;5.996;2022-07-05T00:32:24;15.70;;;14.23;;
20415;SDS011;10367;52.202;5.996;2022-07-05T00:34:53;14.53;;;13.23;;
20415;SDS011;10367;52.202;5.996;2022-07-05T00:37:22;13.87;;;12.87;;
20415;SDS011;10367;52.202;5.996;2022-07-05T00:39:50;15.70;;;14.27;;
20415;SDS011;10367;52.202;5.996;2022-07-05T00:42:21;13.83;;;12.73;;
20415;SDS011;10367;52.202;5.996;2022-07-05T00:44:50;14.67;;;13.17;;
20415;SDS011;10367;52.202;5.996;2022-07-05T00:47:20;15.13;;;13.53;;
20415;SDS011;10367;52.202;5.996;2022-07-05T00:49:49;13.93;;;12.70;;
20415;SDS011;10367;52.202;5.996;2022-07-05T00:52:18;14.37;;;13.07;;
20415;SDS011;10367;52.202;5.996;2022-07-05T00:54:48;12.87;;;11.83;;
20415;SDS011;10367;52.202;5.996;2022-07-05T00:57:21;16.27;;;13.37;;
20415;SDS011;10367;52.202;5.996;2022-07-05T01:00:03;13.47;;;12.37;;
20415;SDS011;10367;52.202;5.996;2022-07-05T01:02:36;13.57;;;12.37;;
20415;SDS011;10367;52.202;5.996;2022-07-05T01:05:05;15.43;;;13.97;;
20415;SDS011;10367;52.202;5.996;2022-07-05T01:07:34;14.57;;;12.93;;
20415;SDS011;10367;52.202;5.996;2022-07-05T01:10:03;14.50;;;13.20;;
20415;SDS011;10367;52.202;5.996;2022-07-05T01:12:32;15.27;;;13.73;;
20415;SDS011;10367;52.202;5.996;2022-07-05T01:15:04;14.20;;;12.93;;
20415;SDS011;10367;52.202;5.996;2022-07-05T01:17:49;13.63;;;12.57;;
20415;SDS011;10367;52.202;5.996;2022-07-05T01:20:22;14.53;;;13.07;;
20415;SDS011;10367;52.202;5.996;2022-07-05T01:22:52;14.07;;;12.77;;
20415;SDS011;10367;52.202;5.996;2022-07-05T01:25:23;14.30;;;12.90;;
20415;SDS011;10367;52.202;5.996;2022-07-05T01:27:53;12.27;;;11.43;;
20415;SDS011;10367;52.202;5.996;2022-07-05T01:30:23;15.20;;;13.00;;
20415;SDS011;10367;52.202;5.996;2022-07-05T01:32:52;12.90;;;11.83;;
20415;SDS011;10367;52.202;5.996;2022-07-05T01:35:21;15.00;;;13.50;;
20415;SDS011;10367;52.202;5.996;2022-07-05T01:37:52;13.30;;;12.17;;
20415;SDS011;10367;52.202;5.996;2022-07-05T01:40:21;13.80;;;12.47;;
20415;SDS011;10367;52.202;5.996;2022-07-05T01:42:49;12.17;;;11.27;;
20415;SDS011;10367;52.202;5.996;2022-07-05T01:45:22;15.17;;;13.47;;
20415;SDS011;10367;52.202;5.996;2022-07-05T01:48:10;13.03;;;11.93;;
20415;SDS011;10367;52.202;5.996;2022-07-05T01:50:42;13.03;;;11.93;;
20415;SDS011;10367;52.202;5.996;2022-07-05T01:53:16;13.57;;;12.37;;
20415;SDS011;10367;52.202;5.996;2022-07-05T01:55:46;15.60;;;12.13;;
20415;SDS011;10367;52.202;5.996;2022-07-05T01:58:15;14.13;;;12.67;;
20415;SDS011;10367;52.202;5.996;2022-07-05T02:00:44;13.43;;;12.33;;
20415;SDS011;10367;52.202;5.996;2022-07-05T02:03:15;13.80;;;12.57;;
20415;SDS011;10367;52.202;5.996;2022-07-05T02:06:06;14.83;;;13.37;;
20415;SDS011;10367;52.202;5.996;2022-07-05T02:08:38;14.17;;;12.73;;
20415;SDS011;10367;52.202;5.996;2022-07-05T02:11:07;14.27;;;12.80;;
20415;SDS011;10367;52.202;5.996;2022-07-05T02:13:36;13.17;;;11.97;;
20415;SDS011;10367;52.202;5.996;2022-07-05T02:16:06;13.93;;;12.33;;
20415;SDS011;10367;52.202;5.996;2022-07-05T02:18:35;15.27;;;13.67;;
20415;SDS011;10367;52.202;5.996;2022-07-05T02:21:03;13.93;;;12.60;;
20415;SDS011;10367;52.202;5.996;2022-07-05T02:23:32;14.73;;;13.30;;
20415;SDS011;10367;52.202;5.996;2022-07-05T02:26:03;14.20;;;12.70;;
20415;SDS011;10367;52.202;5.996;2022-07-05T02:28:31;16.30;;;13.73;;
20415;SDS011;10367;52.202;5.996;2022-07-05T02:31:00;14.70;;;13.20;;
20415;SDS011;10367;52.202;5.996;2022-07-05T02:33:29;14.50;;;13.10;;
20415;SDS011;10367;52.202;5.996;2022-07-05T02:36:02;15.33;;;13.77;;
20415;SDS011;10367;52.202;5.996;2022-07-05T02:38:34;15.20;;;13.70;;
20415;SDS011;10367;52.202;5.996;2022-07-05T02:41:08;13.53;;;12.43;;
20415;SDS011;10367;52.202;5.996;2022-07-05T02:43:37;13.33;;;12.23;;
20415;SDS011;10367;52.202;5.996;2022-07-05T02:46:07;14.87;;;13.47;;
20415;SDS011;10367;52.202;5.996;2022-07-05T02:48:37;14.60;;;13.03;;
20415;SDS011;10367;52.202;5.996;2022-07-05T02:51:06;16.03;;;14.37;;
20415;SDS011;10367;52.202;5.996;2022-07-05T02:53:35;15.57;;;14.07;;
20415;SDS011;10367;52.202;5.996;2022-07-05T02:56:12;14.90;;;13.40;;
20415;SDS011;10367;52.202;5.996;2022-07-05T03:01:29;15.40;;;13.80;;
20415;SDS011;10367;52.202;5.996;2022-07-05T03:03:57;14.67;;;13.37;;
20415;SDS011;10367;52.202;5.996;2022-07-05T03:06:27;13.97;;;12.77;;
20415;SDS011;10367;52.202;5.996;2022-07-05T03:08:55;14.30;;;12.90;;
20415;SDS011;10367;52.202;5.996;2022-07-05T03:11:25;19.60;;;15.83;;
20415;SDS011;10367;52.202;5.996;2022-07-05T03:13:54;15.33;;;13.70;;
20415;SDS011;10367;52.202;5.996;2022-07-05T03:16:24;16.63;;;14.43;;
20415;SDS011;10367;52.202;5.996;2022-07-05T03:18:52;15.13;;;13.60;;
20415;SDS011;10367;52.202;5.996;2022-07-05T03:21:21;19.23;;;16.63;;
20415;SDS011;10367;52.202;5.996;2022-07-05T03:23:50;18.90;;;15.17;;
20415;SDS011;10367;52.202;5.996;2022-07-05T03:26:19;15.13;;;13.60;;
20415;SDS011;10367;52.202;5.996;2022-07-05T03:28:49;14.20;;;12.90;;
20415;SDS011;10367;52.202;5.996;2022-07-05T03:31:18;18.20;;;16.00;;
20415;SDS011;10367;52.202;5.996;2022-07-05T03:33:46;15.60;;;14.10;;
20415;SDS011;10367;52.202;5.996;2022-07-05T03:36:15;16.87;;;15.23;;
20415;SDS011;10367;52.202;5.996;2022-07-05T03:38:44;15.37;;;13.97;;
20415;SDS011;10367;52.202;5.996;2022-07-05T03:41:13;15.70;;;14.17;;
20415;SDS011;10367;52.202;5.996;2022-07-05T03:43:41;14.37;;;13.20;;
20415;SDS011;10367;52.202;5.996;2022-07-05T03:46:23;16.50;;;15.03;;
20415;SDS011;10367;52.202;5.996;2022-07-05T03:48:51;14.77;;;13.27;;
20415;SDS011;10367;52.202;5.996;2022-07-05T03:51:20;17.60;;;14.93;;
20415;SDS011;10367;52.202;5.996;2022-07-05T03:53:49;14.40;;;13.27;;
20415;SDS011;10367;52.202;5.996;2022-07-05T03:56:18;17.20;;;15.60;;
20415;SDS011;10367;52.202;5.996;2022-07-05T03:58:50;14.73;;;13.60;;
20415;SDS011;10367;52.202;5.996;2022-07-05T04:01:18;16.57;;;14.87;;
20415;SDS011;10367;52.202;5.996;2022-07-05T04:03:49;16.30;;;14.77;;
20415;SDS011;10367;52.202;5.996;2022-07-05T04:06:17;15.77;;;14.33;;
20415;SDS011;10367;52.202;5.996;2022-07-05T04:08:46;17.00;;;15.23;;
20415;SDS011;10367;52.202;5.996;2022-07-05T04:11:15;17.27;;;14.67;;
20415;SDS011;10367;52.202;5.996;2022-07-05T04:13:43;15.20;;;13.87;;
20415;SDS011;10367;52.202;5.996;2022-07-05T04:16:12;16.57;;;14.90;;
20415;SDS011;10367;52.202;5.996;2022-07-05T04:18:42;23.93;;;16.43;;
20415;SDS011;10367;52.202;5.996;2022-07-05T04:21:11;17.23;;;15.40;;
20415;SDS011;10367;52.202;5.996;2022-07-05T04:23:40;17.80;;;16.10;;
20415;SDS011;10367;52.202;5.996;2022-07-05T04:26:09;16.93;;;15.33;;
20415;SDS011;10367;52.202;5.996;2022-07-05T04:28:37;17.33;;;15.60;;
20415;SDS011;10367;52.202;5.996;2022-07-05T04:31:06;18.47;;;16.60;;
20415;SDS011;10367;52.202;5.996;2022-07-05T04:33:35;17.03;;;15.27;;
20415;SDS011;10367;52.202;5.996;2022-07-05T04:36:06;20.40;;;16.77;;
20415;SDS011;10367;52.202;5.996;2022-07-05T04:38:35;18.13;;;16.40;;
20415;SDS011;10367;52.202;5.996;2022-07-05T04:41:03;17.93;;;16.10;;
20415;SDS011;10367;52.202;5.996;2022-07-05T04:43:33;18.00;;;15.63;;
20415;SDS011;10367;52.202;5.996;2022-07-05T04:46:01;20.87;;;16.83;;
20415;SDS011;10367;52.202;5.996;2022-07-05T04:48:30;21.00;;;17.20;;
20415;SDS011;10367;52.202;5.996;2022-07-05T04:50:59;17.43;;;15.83;;
20415;SDS011;10367;52.202;5.996;2022-07-05T04:53:29;20.17;;;17.57;;
20415;SDS011;10367;52.202;5.996;2022-07-05T04:55:58;17.70;;;16.00;;
20415;SDS011;10367;52.202;5.996;2022-07-05T04:58:27;18.93;;;16.70;;
20415;SDS011;10367;52.202;5.996;2022-07-05T05:00:55;18.97;;;17.27;;
20415;SDS011;10367;52.202;5.996;2022-07-05T05:03:24;18.23;;;16.30;;
20415;SDS011;10367;52.202;5.996;2022-07-05T05:05:53;18.83;;;17.03;;
20415;SDS011;10367;52.202;5.996;2022-07-05T05:08:21;19.57;;;16.30;;
20415;SDS011;10367;52.202;5.996;2022-07-05T05:10:51;17.53;;;16.07;;
20415;SDS011;10367;52.202;5.996;2022-07-05T05:13:20;17.40;;;15.73;;
20415;SDS011;10367;52.202;5.996;2022-07-05T05:15:49;18.40;;;16.60;;
20415;SDS011;10367;52.202;5.996;2022-07-05T05:18:17;19.17;;;16.97;;
20415;SDS011;10367;52.202;5.996;2022-07-05T05:20:51;17.17;;;15.70;;
20415;SDS011;10367;52.202;5.996;2022-07-05T05:23:19;18.00;;;16.10;;
20415;SDS011;10367;52.202;5.996;2022-07-05T05:25:48;17.83;;;16.10;;
20415;SDS011;10367;52.202;5.996;2022-07-05T05:28:18;18.73;;;16.87;;
20415;SDS011;10367;52.202;5.996;2022-07-05T05:30:47;17.53;;;15.83;;
20415;SDS011;10367;52.202;5.996;2022-07-05T05:33:16;19.23;;;16.70;;
20415;SDS011;10367;52.202;5.996;2022-07-05T05:35:50;18.17;;;16.37;;
20415;SDS011;10367;52.202;5.996;2022-07-05T05:38:18;19.90;;;17.90;;
20415;SDS011;10367;52.202;5.996;2022-07-05T05:40:50;18.73;;;17.00;;
20415;SDS011;10367;52.202;5.996;2022-07-05T05:43:25;20.03;;;18.00;;
20415;SDS011;10367;52.202;5.996;2022-07-05T05:45:53;19.00;;;17.10;;
20415;SDS011;10367;52.202;5.996;2022-07-05T05:48:22;19.20;;;17.20;;
20415;SDS011;10367;52.202;5.996;2022-07-05T05:50:51;16.73;;;15.17;;
20415;SDS011;10367;52.202;5.996;2022-07-05T05:53:19;19.93;;;18.13;;
20415;SDS011;10367;52.202;5.996;2022-07-05T05:55:55;18.70;;;16.80;;
20415;SDS011;10367;52.202;5.996;2022-07-05T05:58:25;18.43;;;16.97;;
20415;SDS011;10367;52.202;5.996;2022-07-05T06:00:54;20.63;;;18.47;;
20415;SDS011;10367;52.202;5.996;2022-07-05T06:03:23;20.40;;;18.43;;
20415;SDS011;10367;52.202;5.996;2022-07-05T06:05:53;22.07;;;19.77;;
20415;SDS011;10367;52.202;5.996;2022-07-05T06:08:22;19.13;;;17.57;;
20415;SDS011;10367;52.202;5.996;2022-07-05T06:10:51;22.77;;;20.33;;
20415;SDS011;10367;52.202;5.996;2022-07-05T06:13:28;20.63;;;18.57;;
20415;SDS011;10367;52.202;5.996;2022-07-05T06:15:57;19.13;;;17.37;;
20415;SDS011;10367;52.202;5.996;2022-07-05T06:18:25;21.17;;;19.03;;
20415;SDS011;10367;52.202;5.996;2022-07-05T06:20:55;20.23;;;18.30;;
20415;SDS011;10367;52.202;5.996;2022-07-05T06:23:23;23.93;;;19.73;;
20415;SDS011;10367;52.202;5.996;2022-07-05T06:25:52;20.97;;;18.40;;
20415;SDS011;10367;52.202;5.996;2022-07-05T06:28:21;23.30;;;18.20;;
20415;SDS011;10367;52.202;5.996;2022-07-05T06:30:51;18.10;;;16.47;;
20415;SDS011;10367;52.202;5.996;2022-07-05T06:33:20;18.13;;;16.50;;
20415;SDS011;10367;52.202;5.996;2022-07-05T06:35:49;16.70;;;15.47;;
20415;SDS011;10367;52.202;5.996;2022-07-05T06:38:18;19.33;;;17.53;;
20415;SDS011;10367;52.202;5.996;2022-07-05T06:40:46;18.90;;;17.07;;
20415;SDS011;10367;52.202;5.996;2022-07-05T06:43:15;19.43;;;17.60;;
20415;SDS011;10367;52.202;5.996;2022-07-05T06:45:44;17.17;;;15.57;;
20415;SDS011;10367;52.202;5.996;2022-07-05T06:48:16;18.77;;;17.20;;
20415;SDS011;10367;52.202;5.996;2022-07-05T06:50:45;19.07;;;17.20;;
20415;SDS011;10367;52.202;5.996;2022-07-05T06:53:14;20.53;;;18.63;;
20415;SDS011;10367;52.202;5.996;2022-07-05T06:55:42;17.93;;;16.43;;
20415;SDS011;10367;52.202;5.996;2022-07-05T06:58:21;17.53;;;16.03;;
20415;SDS011;10367;52.202;5.996;2022-07-05T07:00:50;18.33;;;16.80;;
20415;SDS011;10367;52.202;5.996;2022-07-05T07:03:40;20.33;;;18.33;;
20415;SDS011;10367;52.202;5.996;2022-07-05T07:06:29;19.70;;;17.90;;
20415;SDS011;10367;52.202;5.996;2022-07-05T07:08:58;17.77;;;16.23;;
20415;SDS011;10367;52.202;5.996;2022-07-05T07:11:46;16.80;;;15.43;;
20415;SDS011;10367;52.202;5.996;2022-07-05T07:14:15;18.33;;;16.77;;
20415;SDS011;10367;52.202;5.996;2022-07-05T07:16:44;16.77;;;15.60;;
20415;SDS011;10367;52.202;5.996;2022-07-05T07:19:14;20.40;;;18.23;;
20415;SDS011;10367;52.202;5.996;2022-07-05T07:21:43;15.60;;;14.47;;
20415;SDS011;10367;52.202;5.996;2022-07-05T07:24:12;15.73;;;14.63;;
20415;SDS011;10367;52.202;5.996;2022-07-05T07:26:40;15.97;;;14.87;;
20415;SDS011;10367;52.202;5.996;2022-07-05T07:29:27;15.77;;;14.40;;
20415;SDS011;10367;52.202;5.996;2022-07-05T07:31:59;18.70;;;17.07;;
20415;SDS011;10367;52.202;5.996;2022-07-05T07:34:29;16.77;;;15.40;;
20415;SDS011;10367;52.202;5.996;2022-07-05T07:36:58;17.43;;;16.23;;
20415;SDS011;10367;52.202;5.996;2022-07-05T07:39:27;18.83;;;17.30;;
20415;SDS011;10367;52.202;5.996;2022-07-05T07:41:59;16.67;;;15.67;;
20415;SDS011;10367;52.202;5.996;2022-07-05T07:44:27;18.60;;;17.27;;
20415;SDS011;10367;52.202;5.996;2022-07-05T07:46:58;21.70;;;19.63;;
20415;SDS011;10367;52.202;5.996;2022-07-05T07:49:26;20.20;;;18.53;;
20415;SDS011;10367;52.202;5.996;2022-07-05T07:52:04;18.60;;;17.33;;
20415;SDS011;10367;52.202;5.996;2022-07-05T07:54:33;18.97;;;17.77;;
20415;SDS011;10367;52.202;5.996;2022-07-05T07:57:02;21.23;;;19.33;;
20415;SDS011;10367;52.202;5.996;2022-07-05T07:59:31;19.10;;;17.63;;
20415;SDS011;10367;52.202;5.996;2022-07-05T08:02:03;20.40;;;18.83;;
20415;SDS011;10367;52.202;5.996;2022-07-05T08:04:33;20.50;;;18.90;;
20415;SDS011;10367;52.202;5.996;2022-07-05T08:07:03;18.63;;;17.43;;
20415;SDS011;10367;52.202;5.996;2022-07-05T08:09:32;19.73;;;18.40;;
20415;SDS011;10367;52.202;5.996;2022-07-05T08:12:01;20.03;;;18.63;;
20415;SDS011;10367;52.202;5.996;2022-07-05T08:14:30;20.57;;;18.87;;
20415;SDS011;10367;52.202;5.996;2022-07-05T08:16:59;20.73;;;19.23;;
20415;SDS011;10367;52.202;5.996;2022-07-05T08:19:31;20.17;;;18.77;;
20415;SDS011;10367;52.202;5.996;2022-07-05T08:22:19;20.20;;;18.60;;
20415;SDS011;10367;52.202;5.996;2022-07-05T08:24:47;20.63;;;19.13;;
20415;SDS011;10367;52.202;5.996;2022-07-05T08:27:17;21.17;;;19.30;;
20415;SDS011;10367;52.202;5.996;2022-07-05T08:29:48;21.27;;;19.50;;
20415;SDS011;10367;52.202;5.996;2022-07-05T08:32:17;20.20;;;18.73;;
20415;SDS011;10367;52.202;5.996;2022-07-05T08:34:46;19.30;;;17.87;;
20415;SDS011;10367;52.202;5.996;2022-07-05T08:37:15;20.73;;;19.00;;
20415;SDS011;10367;52.202;5.996;2022-07-05T08:39:45;21.50;;;19.90;;
20415;SDS011;10367;52.202;5.996;2022-07-05T08:42:14;21.43;;;19.83;;
20415;SDS011;10367;52.202;5.996;2022-07-05T08:44:43;21.00;;;19.50;;
20415;SDS011;10367;52.202;5.996;2022-07-05T08:47:14;20.43;;;18.77;;
20415;SDS011;10367;52.202;5.996;2022-07-05T08:49:43;20.40;;;19.00;;
20415;SDS011;10367;52.202;5.996;2022-07-05T08:52:15;21.83;;;20.10;;
20415;SDS011;10367;52.202;5.996;2022-07-05T08:54:49;20.60;;;19.07;;
20415;SDS011;10367;52.202;5.996;2022-07-05T08:57:19;21.00;;;19.33;;
20415;SDS011;10367;52.202;5.996;2022-07-05T08:59:49;19.13;;;17.73;;
20415;SDS011;10367;52.202;5.996;2022-07-05T09:02:17;19.50;;;18.40;;
20415;SDS011;10367;52.202;5.996;2022-07-05T09:04:47;20.97;;;19.57;;
20415;SDS011;10367;52.202;5.996;2022-07-05T09:07:19;22.87;;;21.07;;
20415;SDS011;10367;52.202;5.996;2022-07-05T09:09:54;19.77;;;18.60;;
20415;SDS011;10367;52.202;5.996;2022-07-05T09:12:28;21.60;;;20.10;;
20415;SDS011;10367;52.202;5.996;2022-07-05T09:17:45;21.83;;;20.33;;
20415;SDS011;10367;52.202;5.996;2022-07-05T09:20:14;20.67;;;19.30;;
20415;SDS011;10367;52.202;5.996;2022-07-05T09:22:45;20.70;;;19.30;;
20415;SDS011;10367;52.202;5.996;2022-07-05T09:25:18;22.23;;;20.67;;
20415;SDS011;10367;52.202;5.996;2022-07-05T09:27:48;20.93;;;19.50;;
20415;SDS011;10367;52.202;5.996;2022-07-05T09:30:25;21.17;;;19.60;;
20415;SDS011;10367;52.202;5.996;2022-07-05T09:33:01;21.30;;;19.93;;
20415;SDS011;10367;52.202;5.996;2022-07-05T09:35:32;22.30;;;20.33;;
20415;SDS011;10367;52.202;5.996;2022-07-05T09:38:01;21.73;;;19.97;;
20415;SDS011;10367;52.202;5.996;2022-07-05T09:40:32;22.37;;;20.57;;
20415;SDS011;10367;52.202;5.996;2022-07-05T09:43:13;22.00;;;20.27;;
20415;SDS011;10367;52.202;5.996;2022-07-05T09:45:49;21.87;;;20.27;;
20415;SDS011;10367;52.202;5.996;2022-07-05T09:48:20;20.30;;;18.97;;
20415;SDS011;10367;52.202;5.996;2022-07-05T09:51:03;22.00;;;20.17;;
20415;SDS011;10367;52.202;5.996;2022-07-05T09:53:54;21.43;;;19.93;;
20415;SDS011;10367;52.202;5.996;2022-07-05T09:59:19;22.33;;;20.27;;
20415;SDS011;10367;52.202;5.996;2022-07-05T10:01:49;20.70;;;19.20;;
20415;SDS011;10367;52.202;5.996;2022-07-05T10:04:19;20.83;;;19.10;;
20415;SDS011;10367;52.202;5.996;2022-07-05T10:06:48;20.37;;;18.80;;
20415;SDS011;10367;52.202;5.996;2022-07-05T10:09:17;20.83;;;19.17;;
20415;SDS011;10367;52.202;5.996;2022-07-05T10:11:46;20.17;;;18.57;;
20415;SDS011;10367;52.202;5.996;2022-07-05T10:14:17;20.97;;;19.50;;
20415;SDS011;10367;52.202;5.996;2022-07-05T10:19:36;20.93;;;19.23;;
20415;SDS011;10367;52.202;5.996;2022-07-05T10:22:09;20.53;;;19.13;;
20415;SDS011;10367;52.202;5.996;2022-07-05T10:24:46;22.03;;;20.40;;
20415;SDS011;10367;52.202;5.996;2022-07-05T10:27:17;21.60;;;20.07;;
20415;SDS011;10367;52.202;5.996;2022-07-05T10:29:49;21.00;;;19.50;;
20415;SDS011;10367;52.202;5.996;2022-07-05T10:32:19;21.67;;;20.03;;
20415;SDS011;10367;52.202;5.996;2022-07-05T10:34:52;21.23;;;19.90;;
20415;SDS011;10367;52.202;5.996;2022-07-05T10:37:24;21.90;;;20.30;;
20415;SDS011;10367;52.202;5.996;2022-07-05T10:39:57;21.97;;;20.40;;
20415;SDS011;10367;52.202;5.996;2022-07-05T10:42:33;23.93;;;21.93;;
20415;SDS011;10367;52.202;5.996;2022-07-05T10:48:17;22.50;;;20.90;;
20415;SDS011;10367;52.202;5.996;2022-07-05T10:50:48;22.10;;;20.33;;
20415;SDS011;10367;52.202;5.996;2022-07-05T10:53:18;23.07;;;21.30;;
20415;SDS011;10367;52.202;5.996;2022-07-05T10:55:50;20.97;;;19.57;;
20415;SDS011;10367;52.202;5.996;2022-07-05T10:58:24;20.03;;;18.70;;
20415;SDS011;10367;52.202;5.996;2022-07-05T11:07:03;20.47;;;19.17;;
20415;SDS011;10367;52.202;5.996;2022-07-05T11:09:32;22.77;;;20.97;;
20415;SDS011;10367;52.202;5.996;2022-07-05T11:12:02;21.53;;;20.10;;
20415;SDS011;10367;52.202;5.996;2022-07-05T11:15:03;22.00;;;20.50;;
20415;SDS011;10367;52.202;5.996;2022-07-05T11:17:36;21.63;;;20.03;;
20415;SDS011;10367;52.202;5.996;2022-07-05T11:20:30;20.87;;;19.47;;
20415;SDS011;10367;52.202;5.996;2022-07-05T11:23:00;22.20;;;20.60;;
20415;SDS011;10367;52.202;5.996;2022-07-05T11:25:31;21.07;;;19.73;;
20415;SDS011;10367;52.202;5.996;2022-07-05T11:28:04;21.50;;;20.10;;
20415;SDS011;10367;52.202;5.996;2022-07-05T11:30:48;21.20;;;19.73;;
20415;SDS011;10367;52.202;5.996;2022-07-05T11:33:25;19.97;;;18.77;;
20415;SDS011;10367;52.202;5.996;2022-07-05T11:36:23;19.40;;;18.20;;
20415;SDS011;10367;52.202;5.996;2022-07-05T11:41:47;21.33;;;19.77;;
20415;SDS011;10367;52.202;5.996;2022-07-05T11:44:17;20.80;;;19.40;;
20415;SDS011;10367;52.202;5.996;2022-07-05T11:46:46;22.27;;;20.40;;
20415;SDS011;10367;52.202;5.996;2022-07-05T11:49:19;21.47;;;19.97;;
20415;SDS011;10367;52.202;5.996;2022-07-05T11:51:57;21.70;;;20.00;;
20415;SDS011;10367;52.202;5.996;2022-07-05T11:54:28;20.30;;;19.07;;
20415;SDS011;10367;52.202;5.996;2022-07-05T11:56:57;19.77;;;18.50;;
20415;SDS011;10367;52.202;5.996;2022-07-05T11:59:27;21.30;;;19.90;;
20415;SDS011;10367;52.202;5.996;2022-07-05T12:01:56;19.80;;;18.43;;
20415;SDS011;10367;52.202;5.996;2022-07-05T12:04:25;19.73;;;18.53;;
20415;SDS011;10367;52.202;5.996;2022-07-05T12:06:57;20.53;;;18.93;;
20415;SDS011;10367;52.202;5.996;2022-07-05T12:09:26;22.30;;;20.60;;
20415;SDS011;10367;52.202;5.996;2022-07-05T12:12:19;20.83;;;19.17;;
20415;SDS011;10367;52.202;5.996;2022-07-05T12:15:06;20.17;;;18.80;;
20415;SDS011;10367;52.202;5.996;2022-07-05T12:17:36;20.63;;;19.30;;
20415;SDS011;10367;52.202;5.996;2022-07-05T12:20:06;20.93;;;19.50;;
20415;SDS011;10367;52.202;5.996;2022-07-05T12:22:40;20.93;;;19.50;;
20415;SDS011;10367;52.202;5.996;2022-07-05T12:25:12;19.93;;;18.73;;
20415;SDS011;10367;52.202;5.996;2022-07-05T12:27:42;20.67;;;19.37;;
20415;SDS011;10367;52.202;5.996;2022-07-05T12:30:12;20.20;;;18.80;;
20415;SDS011;10367;52.202;5.996;2022-07-05T12:32:54;21.03;;;19.47;;
20415;SDS011;10367;52.202;5.996;2022-07-05T12:35:32;21.00;;;19.47;;
20415;SDS011;10367;52.202;5.996;2022-07-05T12:38:05;20.43;;;18.83;;
20415;SDS011;10367;52.202;5.996;2022-07-05T12:40:35;20.17;;;18.87;;
20415;SDS011;10367;52.202;5.996;2022-07-05T12:43:06;20.07;;;18.67;;
20415;SDS011;10367;52.202;5.996;2022-07-05T12:45:36;20.90;;;19.37;;
20415;SDS011;10367;52.202;5.996;2022-07-05T12:48:07;21.43;;;19.93;;
20415;SDS011;10367;52.202;5.996;2022-07-05T12:50:46;21.07;;;19.37;;
20415;SDS011;10367;52.202;5.996;2022-07-05T12:53:45;20.63;;;19.07;;
20415;SDS011;10367;52.202;5.996;2022-07-05T12:56:31;19.73;;;18.17;;
20415;SDS011;10367;52.202;5.996;2022-07-05T12:59:38;22.60;;;20.63;;
20415;SDS011;10367;52.202;5.996;2022-07-05T13:02:07;20.67;;;18.77;;
20415;SDS011;10367;52.202;5.996;2022-07-05T13:04:37;20.90;;;19.60;;
20415;SDS011;10367;52.202;5.996;2022-07-05T13:07:24;20.77;;;19.27;;
20415;SDS011;10367;52.202;5.996;2022-07-05T13:10:14;19.80;;;18.53;;
20415;SDS011;10367;52.202;5.996;2022-07-05T13:12:44;20.50;;;19.10;;
20415;SDS011;10367;52.202;5.996;2022-07-05T13:15:13;20.97;;;19.63;;
20415;SDS011;10367;52.202;5.996;2022-07-05T13:17:42;20.43;;;19.13;;
20415;SDS011;10367;52.202;5.996;2022-07-05T13:20:13;20.00;;;18.70;;
20415;SDS011;10367;52.202;5.996;2022-07-05T13:22:45;20.27;;;18.83;;
20415;SDS011;10367;52.202;5.996;2022-07-05T13:25:15;20.90;;;19.30;;
20415;SDS011;10367;52.202;5.996;2022-07-05T13:27:44;20.53;;;19.17;;
20415;SDS011;10367;52.202;5.996;2022-07-05T13:30:13;19.80;;;18.47;;
20415;SDS011;10367;52.202;5.996;2022-07-05T13:32:42;21.40;;;19.63;;
20415;SDS011;10367;52.202;5.996;2022-07-05T13:35:10;19.43;;;18.27;;
20415;SDS011;10367;52.202;5.996;2022-07-05T13:37:39;19.57;;;18.33;;
20415;SDS011;10367;52.202;5.996;2022-07-05T13:40:10;20.27;;;18.73;;
20415;SDS011;10367;52.202;5.996;2022-07-05T13:42:41;19.57;;;18.27;;
20415;SDS011;10367;52.202;5.996;2022-07-05T13:45:10;20.47;;;19.07;;
20415;SDS011;10367;52.202;5.996;2022-07-05T13:47:40;20.23;;;18.93;;
20415;SDS011;10367;52.202;5.996;2022-07-05T13:50:10;19.47;;;18.27;;
20415;SDS011;10367;52.202;5.996;2022-07-05T13:52:56;21.60;;;20.07;;
20415;SDS011;10367;52.202;5.996;2022-07-05T13:55:25;22.00;;;20.07;;
20415;SDS011;10367;52.202;5.996;2022-07-05T13:57:55;20.40;;;18.93;;
20415;SDS011;10367;52.202;5.996;2022-07-05T14:00:25;19.63;;;18.33;;
20415;SDS011;10367;52.202;5.996;2022-07-05T14:02:54;20.40;;;18.87;;
20415;SDS011;10367;52.202;5.996;2022-07-05T14:05:32;19.40;;;18.00;;
20415;SDS011;10367;52.202;5.996;2022-07-05T14:08:01;19.67;;;18.37;;
20415;SDS011;10367;52.202;5.996;2022-07-05T14:10:29;19.40;;;18.17;;
20415;SDS011;10367;52.202;5.996;2022-07-05T14:13:00;19.97;;;18.67;;
20415;SDS011;10367;52.202;5.996;2022-07-05T14:15:28;20.27;;;18.87;;
20415;SDS011;10367;52.202;5.996;2022-07-05T14:17:57;20.40;;;18.90;;
20415;SDS011;10367;52.202;5.996;2022-07-05T14:20:30;20.37;;;18.73;;
20415;SDS011;10367;52.202;5.996;2022-07-05T14:22:58;20.30;;;18.90;;
20415;SDS011;10367;52.202;5.996;2022-07-05T14:25:27;20.87;;;19.27;;
20415;SDS011;10367;52.202;5.996;2022-07-05T14:27:56;20.40;;;19.10;;
20415;SDS011;10367;52.202;5.996;2022-07-05T14:30:26;21.53;;;19.70;;
20415;SDS011;10367;52.202;5.996;2022-07-05T14:32:55;20.57;;;19.10;;
20415;SDS011;10367;52.202;5.996;2022-07-05T14:35:32;21.30;;;19.57;;
20415;SDS011;10367;52.202;5.996;2022-07-05T14:38:01;20.40;;;18.97;;
20415;SDS011;10367;52.202;5.996;2022-07-05T14:40:30;19.77;;;18.33;;
20415;SDS011;10367;52.202;5.996;2022-07-05T14:43:00;20.90;;;19.37;;
20415;SDS011;10367;52.202;5.996;2022-07-05T14:45:30;20.90;;;19.50;;
20415;SDS011;10367;52.202;5.996;2022-07-05T14:47:59;20.93;;;19.47;;
20415;SDS011;10367;52.202;5.996;2022-07-05T14:50:28;21.80;;;20.27;;
20415;SDS011;10367;52.202;5.996;2022-07-05T14:52:57;21.57;;;20.07;;
20415;SDS011;10367;52.202;5.996;2022-07-05T14:55:32;21.60;;;20.00;;
20415;SDS011;10367;52.202;5.996;2022-07-05T15:00:51;22.10;;;20.43;;
20415;SDS011;10367;52.202;5.996;2022-07-05T15:03:21;20.13;;;18.80;;
20415;SDS011;10367;52.202;5.996;2022-07-05T15:05:50;20.67;;;19.30;;
20415;SDS011;10367;52.202;5.996;2022-07-05T15:08:20;21.73;;;20.13;;
20415;SDS011;10367;52.202;5.996;2022-07-05T15:10:49;20.60;;;19.20;;
20415;SDS011;10367;52.202;5.996;2022-07-05T15:13:18;20.50;;;19.10;;